Time;durP1;ratioP1;P1;durP2;ratioP2;P2;SDS_P1;SDS_P2;PMS_P1;PMS_P2;Temp;Humidity;BMP_temperature;BMP_pressure;BME280_temperature;BME280_humidity;BME280_pressure;Samples;Min_cycle;Max_cycle;Signal;HPM_P1;HPM_P2
2024/04/10 00:00:16;;;;;;;12.77;3.03;;;;;;;8.87;100.00;69382.38;5560597;25;20008;-47
2024/04/10 00:02:48;;;;;;;18.83;3.47;;;;;;;8.85;100.00;69383.22;5558318;25;19996;-47
2024/04/10 00:05:17;;;;;;;15.18;2.97;;;;;;;8.84;100.00;69376.84;5555850;25;20098;-48
2024/04/10 00:07:49;;;;;;;13.48;3.40;;;;;;;8.84;100.00;69376.84;5558647;25;19993;-51
2024/04/10 00:10:21;;;;;;;14.05;3.38;;;;;;;8.83;100.00;69375.69;5560308;25;19997;-48
2024/04/10 00:12:52;;;;;;;13.02;2.92;;;;;;;8.83;100.00;69377.72;5560756;25;20444;-50
2024/04/10 00:15:20;;;;;;;14.02;2.80;;;;;;;8.80;100.00;69372.19;5560209;25;20007;-49
2024/04/10 00:17:50;;;;;;;17.83;3.20;;;;;;;8.75;100.00;69366.34;5560372;25;20008;-49
2024/04/10 00:20:19;;;;;;;16.65;2.42;;;;;;;8.74;100.00;69365.78;5560268;25;20012;-52
2024/04/10 00:22:50;;;;;;;17.17;2.63;;;;;;;8.67;100.00;69354.44;5559663;25;20003;-50
2024/04/10 00:25:21;;;;;;;15.60;2.97;;;;;;;8.62;100.00;69352.38;5560142;25;20432;-49
2024/04/10 00:27:52;;;;;;;12.80;2.63;;;;;;;8.60;100.00;69355.25;5559714;25;20007;-49
2024/04/10 00:30:20;;;;;;;18.33;2.70;;;;;;;8.60;100.00;69352.06;5559786;25;20008;-47
2024/04/10 00:32:51;;;;;;;15.18;4.05;;;;;;;8.51;100.00;69342.16;5557182;25;19989;-49
2024/04/10 00:35:20;;;;;;;10.85;2.47;;;;;;;8.49;100.00;69334.63;5555881;25;19989;-52
2024/04/10 00:37:50;;;;;;;11.82;3.78;;;;;;;8.42;100.00;69329.63;5559488;25;19993;-50
2024/04/10 00:40:21;;;;;;;19.50;3.60;;;;;;;8.43;100.00;69330.78;5559740;25;20011;-49
2024/04/10 00:42:52;;;;;;;9.63;2.47;;;;;;;8.40;100.00;69329.91;5560040;25;20073;-49
2024/04/10 00:45:20;;;;;;;13.32;2.95;;;;;;;8.38;100.00;69327.00;5556632;25;20321;-51
2024/04/10 00:47:51;;;;;;;16.48;2.50;;;;;;;8.39;100.00;69326.13;5555180;25;20009;-52
2024/04/10 00:50:20;;;;;;;12.18;2.88;;;;;;;8.39;100.00;69328.16;5555995;25;20976;-50
2024/04/10 00:52:52;;;;;;;12.40;2.38;;;;;;;8.38;100.00;69324.41;5555243;25;20021;-50
2024/04/10 00:55:23;;;;;;;14.43;2.75;;;;;;;8.36;100.00;69322.66;5560004;25;20004;-49
2024/04/10 00:57:54;;;;;;;15.23;2.72;;;;;;;8.33;100.00;69321.16;5559581;25;20003;-52
2024/04/10 01:00:22;;;;;;;13.82;3.40;;;;;;;8.28;100.00;69313.91;5527925;25;20001;-50
2024/04/10 01:02:53;;;;;;;14.63;2.63;;;;;;;8.25;100.00;69310.41;5562446;25;19989;-50
2024/04/10 01:05:21;;;;;;;19.45;3.30;;;;;;;8.27;100.00;69315.34;5563042;25;19989;-49
2024/04/10 01:07:52;;;;;;;16.05;3.00;;;;;;;8.25;100.00;69313.00;5563369;25;19992;-51
2024/04/10 01:10:23;;;;;;;10.68;2.60;;;;;;;8.23;100.00;69308.06;5563251;25;20004;-51
2024/04/10 01:12:54;;;;;;;9.30;3.10;;;;;;;8.24;100.00;69311.28;5563266;25;20072;-48
2024/04/10 01:15:22;;;;;;;15.18;2.97;;;;;;;8.26;100.00;69311.00;5562215;25;19993;-48
2024/04/10 01:17:52;;;;;;;11.43;2.83;;;;;;;8.19;100.00;69308.63;5558092;25;19997;-49
2024/04/10 01:20:21;;;;;;;12.73;2.50;;;;;;;8.20;100.00;69304.00;5561359;25;20092;-49
2024/04/10 01:22:53;;;;;;;11.52;2.75;;;;;;;8.18;100.00;69304.88;5563016;25;20064;-51
2024/04/10 01:25:24;;;;;;;13.27;3.35;;;;;;;8.19;100.00;69305.44;5563057;25;20061;-52
2024/04/10 01:27:55;;;;;;;11.25;3.15;;;;;;;8.19;100.00;69303.41;5562820;25;20100;-53
2024/04/10 01:30:23;;;;;;;16.80;2.90;;;;;;;8.17;100.00;69301.09;5562796;25;20003;-53
2024/04/10 01:32:55;;;;;;;14.18;3.13;;;;;;;8.20;100.00;69307.19;5562625;25;20017;-50
2024/04/10 01:35:23;;;;;;;11.32;2.90;;;;;;;8.21;100.00;69308.34;5552838;25;20329;-50
2024/04/10 01:37:54;;;;;;;16.48;2.97;;;;;;;8.20;100.00;69307.19;5556523;25;20330;-51
2024/04/10 01:40:25;;;;;;;11.82;3.38;;;;;;;8.17;100.00;69300.53;5562532;25;20022;-51
2024/04/10 01:42:56;;;;;;;13.65;3.72;;;;;;;8.12;100.00;69295.25;5562658;25;19993;-49
2024/04/10 01:45:24;;;;;;;8.30;2.58;;;;;;;8.10;100.00;69295.53;5562486;25;20071;-50
2024/04/10 01:47:54;;;;;;;5.88;2.13;;;;;;;8.07;100.00;69294.63;5559903;25;19988;-48
2024/04/10 01:50:23;;;;;;;7.70;2.30;;;;;;;8.04;100.00;69288.53;5556437;25;20440;-52
2024/04/10 01:52:54;;;;;;;10.93;2.33;;;;;;;8.01;100.00;69287.66;5558063;25;20008;-48
2024/04/10 01:55:25;;;;;;;9.43;2.72;;;;;;;8.01;100.00;69282.47;5560046;25;20004;-49
2024/04/10 01:57:56;;;;;;;9.02;2.60;;;;;;;8.08;100.00;69290.59;5562320;25;20067;-48
2024/04/10 02:00:25;;;;;;;8.05;2.17;;;;;;;8.09;100.00;69292.34;5562307;25;19993;-47
2024/04/10 02:02:56;;;;;;;11.30;2.88;;;;;;;8.12;100.00;69298.44;5558623;25;19997;-49
2024/04/10 02:05:24;;;;;;;7.95;2.20;;;;;;;8.12;100.00;69301.03;5555770;25;20068;-48
2024/04/10 02:07:55;;;;;;;9.95;3.13;;;;;;;8.13;100.00;69299.59;5562167;25;20131;-48
2024/04/10 02:10:26;;;;;;;10.38;2.88;;;;;;;8.13;100.00;69296.44;5562241;25;20008;-50
2024/04/10 02:12:58;;;;;;;11.93;3.42;;;;;;;8.14;100.00;69300.22;5560811;25;20008;-48
2024/04/10 02:15:26;;;;;;;11.55;2.88;;;;;;;8.18;100.00;69301.66;5561906;25;20112;-47
2024/04/10 02:17:57;;;;;;;12.90;3.95;;;;;;;8.13;100.00;69297.00;5561765;25;20014;-47
2024/04/10 02:20:26;;;;;;;11.80;3.33;;;;;;;8.12;100.00;69298.44;5561939;25;20095;-46
2024/04/10 02:22:57;;;;;;;12.80;3.35;;;;;;;8.11;100.00;69299.28;5559102;25;20432;-47
2024/04/10 02:25:32;;;;;;;14.38;4.13;;;;;;;8.11;100.00;69297.28;5558015;25;20813;-50
2024/04/10 02:28:03;;;;;;;17.17;3.47;;;;;;;8.13;100.00;69296.44;5528135;25;20033;-48
2024/04/10 02:30:32;;;;;;;14.02;3.40;;;;;;;8.14;100.00;69295.00;5562218;25;20384;-50
2024/04/10 02:33:02;;;;;;;16.23;4.13;;;;;;;8.18;100.00;69304.28;5561804;25;19993;-47
2024/04/10 02:35:31;;;;;;;13.45;3.28;;;;;;;8.17;100.00;69303.69;5562153;25;20003;-48
2024/04/10 02:38:02;;;;;;;15.23;3.72;;;;;;;8.18;100.00;69304.88;5561583;25;20074;-46
2024/04/10 02:40:33;;;;;;;12.75;3.47;;;;;;;8.20;100.00;69307.19;5561890;25;20068;-47
2024/04/10 02:43:07;;;;;;;10.48;3.28;;;;;;;8.20;100.00;69304.59;5561836;25;19997;-48
2024/04/10 02:45:35;;;;;;;14.32;3.92;;;;;;;8.23;100.00;69310.09;5561638;25;20004;-46
2024/04/10 02:48:06;;;;;;;10.60;3.78;;;;;;;8.26;100.00;69308.38;5558085;25;19997;-47
2024/04/10 02:50:34;;;;;;;11.05;3.63;;;;;;;8.25;100.00;69313.00;5555574;25;20004;-48
2024/04/10 02:53:05;;;;;;;10.63;3.72;;;;;;;8.29;100.00;69320.28;5560022;25;20041;-45
2024/04/10 02:55:36;;;;;;;10.50;3.47;;;;;;;8.33;100.00;69318.56;5556811;25;20067;-46
2024/04/10 02:58:07;;;;;;;15.32;3.42;;;;;;;8.33;100.00;69321.16;5559044;25;20053;-46
2024/04/10 03:00:45;;;;;;;9.77;3.00;;;;;;;8.32;100.00;69320.59;5561157;25;20029;-46
2024/04/10 03:03:14;;;;;;;11.77;3.65;;;;;;;8.28;100.00;69318.53;5558560;25;20321;-46
2024/04/10 03:05:47;;;;;;;9.73;3.78;;;;;;;8.28;100.00;69311.31;5554410;25;20436;-48
2024/04/10 03:08:15;;;;;;;13.10;3.80;;;;;;;8.31;100.00;69314.22;5556311;25;20021;-48
2024/04/10 03:10:49;;;;;;;15.57;3.92;;;;;;;8.31;100.00;69316.25;5558660;25;20023;-49
2024/04/10 03:13:17;;;;;;;12.07;3.38;;;;;;;8.28;100.00;69315.94;5528395;25;20451;-47
2024/04/10 03:15:47;;;;;;;15.27;4.28;;;;;;;8.27;100.00;69315.34;5560648;25;19996;-49
2024/04/10 03:18:17;;;;;;;10.30;3.10;;;;;;;8.27;100.00;69315.34;5561114;25;19997;-48
2024/04/10 03:20:48;;;;;;;13.25;3.17;;;;;;;8.29;100.00;69311.91;5527824;25;20001;-49
2024/04/10 03:23:16;;;;;;;11.88;3.70;;;;;;;8.29;100.00;69317.09;5559736;25;19996;-49
2024/04/10 03:25:49;;;;;;;13.27;3.35;;;;;;;8.27;100.00;69314.75;5560760;25;20029;-47
2024/04/10 03:28:17;;;;;;;16.08;3.58;;;;;;;8.28;100.00;69319.09;5557317;25;20004;-47
2024/04/10 03:30:54;;;;;;;11.75;3.60;;;;;;;8.29;100.00;69315.06;5556112;25;20005;-46
2024/04/10 03:33:24;;;;;;;13.90;4.10;;;;;;;8.28;100.00;69316.50;5560805;25;19993;-46
2024/04/10 03:35:56;;;;;;;10.80;3.45;;;;;;;8.28;100.00;69315.94;5560802;25;20007;-46
2024/04/10 03:38:24;;;;;;;12.63;3.83;;;;;;;8.28;100.00;69315.94;5561157;25;19993;-46
2024/04/10 03:40:57;;;;;;;10.00;3.60;;;;;;;8.32;100.00;69317.41;5560419;25;19989;-48
2024/04/10 03:43:28;;;;;;;13.63;3.55;;;;;;;8.36;100.00;69324.69;5560565;25;20068;-47
2024/04/10 03:46:00;;;;;;;13.57;3.35;;;;;;;8.37;100.00;69325.81;5560655;25;20005;-47
2024/04/10 03:48:31;;;;;;;15.77;3.33;;;;;;;8.34;100.00;69319.72;5560798;25;20336;-47
2024/04/10 03:51:02;;;;;;;11.77;3.50;;;;;;;8.35;100.00;69320.91;5560674;25;20068;-46
2024/04/10 03:53:34;;;;;;;14.38;3.47;;;;;;;8.37;100.00;69325.81;5560841;25;20037;-48
2024/04/10 03:56:05;;;;;;;12.63;3.47;;;;;;;8.36;100.00;69324.69;5560901;25;20001;-47
2024/04/10 03:58:36;;;;;;;15.73;3.55;;;;;;;8.38;100.00;69327.00;5560491;25;19997;-47
2024/04/10 04:01:04;;;;;;;14.63;3.40;;;;;;;8.40;100.00;69326.72;5560815;25;20071;-47
2024/04/10 04:03:36;;;;;;;11.05;3.50;;;;;;;8.39;100.00;69328.16;5557248;25;20441;-47
2024/04/10 04:06:05;;;;;;;13.48;3.25;;;;;;;8.38;100.00;69324.97;5553097;25;20428;-47
2024/04/10 04:08:36;;;;;;;14.32;3.95;;;;;;;8.37;100.00;69323.81;5556509;25;19997;-47
2024/04/10 04:11:07;;;;;;;14.45;3.72;;;;;;;8.42;100.00;69329.63;5557607;25;20007;-48
2024/04/10 04:13:38;;;;;;;10.50;3.20;;;;;;;8.41;100.00;69330.47;5560354;25;19993;-46
2024/04/10 04:16:07;;;;;;;15.75;3.70;;;;;;;8.39;100.00;69328.16;5560299;25;20037;-47
2024/04/10 04:18:38;;;;;;;11.32;4.43;;;;;;;8.40;100.00;69327.31;5559970;25;20064;-47
2024/04/10 04:21:07;;;;;;;15.95;4.28;;;;;;;8.41;100.00;69330.47;5553800;25;19997;-47
2024/04/10 04:23:37;;;;;;;13.27;3.50;;;;;;;8.36;100.00;69320.03;5558291;25;19997;-46
2024/04/10 04:26:08;;;;;;;13.75;3.53;;;;;;;8.36;100.00;69324.69;5560064;25;19993;-46
2024/04/10 04:28:41;;;;;;;13.82;3.75;;;;;;;8.35;100.00;69324.06;5560158;25;20000;-48
2024/04/10 04:31:12;;;;;;;14.07;4.15;;;;;;;8.36;100.00;69324.69;5559804;25;20024;-49
2024/04/10 04:33:43;;;;;;;16.70;4.25;;;;;;;8.37;100.00;69326.41;5559882;25;20028;-49
2024/04/10 04:36:12;;;;;;;12.93;3.70;;;;;;;8.38;100.00;69324.97;5560370;25;20003;-49
2024/04/10 04:38:42;;;;;;;12.43;3.17;;;;;;;8.39;100.00;69328.16;5559656;25;20036;-50
2024/04/10 04:41:13;;;;;;;12.05;3.40;;;;;;;8.40;100.00;69329.34;5562356;25;19996;-49
2024/04/10 04:43:44;;;;;;;11.60;2.90;;;;;;;8.39;100.00;69322.97;5563083;25;20008;-49
2024/04/10 04:46:17;;;;;;;14.73;3.88;;;;;;;8.38;100.00;69324.41;5558506;25;19992;-48
2024/04/10 04:48:48;;;;;;;13.40;3.88;;;;;;;8.38;100.00;69327.56;5559232;25;20001;-49
2024/04/10 04:51:16;;;;;;;12.48;3.53;;;;;;;8.41;100.00;69330.47;5557025;25;20007;-50
2024/04/10 04:53:47;;;;;;;12.90;3.60;;;;;;;8.35;100.00;69323.50;5559474;25;20011;-51
2024/04/10 04:56:20;;;;;;;14.88;3.45;;;;;;;8.32;100.00;69315.38;5562430;25;20008;-50
2024/04/10 04:58:48;;;;;;;12.05;3.55;;;;;;;8.35;100.00;69320.91;5559231;25;20007;-51
2024/04/10 05:01:21;;;;;;;15.23;3.80;;;;;;;8.33;100.00;69321.75;5560442;25;20038;-48
2024/04/10 05:06:38;;;;;;;13.73;3.65;;;;;;;8.30;100.00;69318.25;5562872;25;20313;-48
2024/04/10 05:09:12;;;;;;;15.90;3.33;;;;;;;8.31;100.00;69321.44;5559607;25;19996;-52
2024/04/10 05:11:42;;;;;;;13.80;3.58;;;;;;;8.27;100.00;69317.94;5561053;25;19997;-49
2024/04/10 05:14:14;;;;;;;12.02;3.03;;;;;;;8.27;100.00;69310.13;5563039;25;20007;-48
2024/04/10 05:16:42;;;;;;;12.82;3.22;;;;;;;8.22;100.00;69309.53;5562910;25;20386;-50
2024/04/10 05:19:12;;;;;;;11.93;2.95;;;;;;;8.26;100.00;69313.59;5561652;25;20001;-52
2024/04/10 05:21:40;;;;;;;14.60;3.58;;;;;;;8.31;100.00;69311.03;5556497;25;20464;-50
2024/04/10 05:24:11;;;;;;;10.63;3.13;;;;;;;8.30;100.00;69313.03;5560856;25;20003;-53
2024/04/10 05:26:42;;;;;;;11.95;2.85;;;;;;;8.29;100.00;69315.06;5562955;25;20335;-48
2024/04/10 05:29:12;;;;;;;12.93;3.58;;;;;;;8.29;100.00;69317.69;5562639;25;20430;-48
2024/04/10 05:31:40;;;;;;;10.48;3.13;;;;;;;8.32;100.00;69320.00;5562893;25;20000;-48
2024/04/10 05:34:11;;;;;;;15.23;3.00;;;;;;;8.31;100.00;69316.25;5562460;25;20001;-48
2024/04/10 05:36:39;;;;;;;12.93;3.00;;;;;;;8.32;100.00;69320.59;5562628;25;20010;-48
2024/04/10 05:39:10;;;;;;;11.18;2.90;;;;;;;8.40;100.00;69326.72;5559692;25;19997;-48
2024/04/10 05:41:38;;;;;;;15.20;3.25;;;;;;;8.42;100.00;69332.22;5559088;25;20025;-49
2024/04/10 05:44:12;;;;;;;14.25;3.40;;;;;;;8.45;100.00;69332.56;5558696;25;20012;-48
2024/04/10 05:46:40;;;;;;;14.23;3.22;;;;;;;8.46;100.00;69334.31;5556556;25;19993;-50
2024/04/10 05:49:11;;;;;;;13.52;3.22;;;;;;;8.48;100.00;69340.69;5527356;25;20007;-48
2024/04/10 05:51:40;;;;;;;13.60;3.08;;;;;;;8.47;100.00;69337.50;5562687;25;20068;-47
2024/04/10 05:54:10;;;;;;;14.85;2.90;;;;;;;8.51;100.00;69342.16;5529616;25;20399;-45
2024/04/10 05:56:38;;;;;;;15.40;3.67;;;;;;;8.53;100.00;69341.31;5562758;25;19997;-52
2024/04/10 05:59:12;;;;;;;11.77;3.15;;;;;;;8.55;100.00;69346.22;5560774;25;19997;-47
2024/04/10 06:01:40;;;;;;;14.30;3.53;;;;;;;8.56;100.00;69345.41;5557560;25;20000;-50
2024/04/10 06:04:11;;;;;;;15.63;3.10;;;;;;;8.57;100.00;69346.53;5558017;25;20515;-49
2024/04/10 06:06:39;;;;;;;15.80;3.15;;;;;;;8.55;100.00;69344.22;5555950;25;20005;-52
2024/04/10 06:09:10;;;;;;;13.75;3.13;;;;;;;8.57;100.00;69346.53;5560962;25;20001;-50
2024/04/10 06:11:38;;;;;;;15.07;2.95;;;;;;;8.63;100.00;69356.16;5558735;25;20029;-49
2024/04/10 06:14:12;;;;;;;10.43;2.97;;;;;;;8.59;100.00;69353.50;5559479;25;20008;-47
2024/04/10 06:16:40;;;;;;;14.93;3.28;;;;;;;8.61;100.00;69351.22;5559736;25;20069;-46
2024/04/10 06:19:11;;;;;;;14.27;3.22;;;;;;;8.63;100.00;69356.16;5558231;25;20456;-47
2024/04/10 06:21:39;;;;;;;13.18;3.47;;;;;;;8.68;100.00;69363.41;5560869;25;20004;-47
2024/04/10 06:24:13;;;;;;;12.20;4.07;;;;;;;8.72;100.00;69365.47;5562256;25;20065;-49
2024/04/10 06:26:41;;;;;;;12.38;3.20;;;;;;;8.75;100.00;69366.34;5561915;25;19997;-46
2024/04/10 06:29:14;;;;;;;12.77;3.10;;;;;;;8.77;100.00;69371.88;5558320;25;20014;-47
2024/04/10 06:31:43;;;;;;;15.98;3.78;;;;;;;8.81;100.00;69373.38;5557186;25;19997;-45
2024/04/10 06:34:14;;;;;;;12.60;3.25;;;;;;;8.84;100.00;69379.47;5560671;25;20001;-45
2024/04/10 06:36:42;;;;;;;14.25;3.13;;;;;;;8.89;100.00;69382.69;5555428;25;19993;-47
2024/04/10 06:39:13;;;;;;;13.13;3.30;;;;;;;8.97;100.00;69394.03;5558564;25;20468;-47
2024/04/10 06:41:41;;;;;;;14.48;3.22;;;;;;;9.03;100.00;69397.84;5525952;25;20025;-46
2024/04/10 06:44:14;;;;;;;14.30;3.17;;;;;;;9.10;100.00;69409.19;5556661;25;20016;-46
2024/04/10 06:46:43;;;;;;;12.40;2.67;;;;;;;9.16;100.00;69415.59;5561624;25;20467;-45
2024/04/10 06:49:15;;;;;;;9.93;2.85;;;;;;;9.20;100.00;69419.69;5562045;25;20399;-46
2024/04/10 06:51:43;;;;;;;13.30;2.72;;;;;;;9.23;100.00;69423.75;5561665;25;20362;-45
2024/04/10 06:54:14;;;;;;;16.40;3.28;;;;;;;9.27;100.00;69428.44;5557911;25;20128;-47
2024/04/10 06:56:47;;;;;;;10.60;3.00;;;;;;;9.34;100.00;69435.41;5555498;25;20498;-46
2024/04/10 06:59:22;;;;;;;13.27;3.10;;;;;;;9.36;100.00;69437.75;5556563;25;19996;-47
2024/04/10 07:01:51;;;;;;;12.88;3.47;;;;;;;9.40;100.00;69443.00;5557817;25;19993;-46
2024/04/10 07:04:22;;;;;;;15.98;3.42;;;;;;;9.49;100.00;69450.31;5561303;25;20001;-47
2024/04/10 07:06:51;;;;;;;13.23;2.80;;;;;;;9.50;100.00;69451.47;5561454;25;20004;-47
2024/04/10 07:09:23;;;;;;;13.25;3.08;;;;;;;9.52;100.00;69453.81;5561368;25;20001;-46
2024/04/10 07:11:51;;;;;;;12.75;3.05;;;;;;;9.62;100.00;69468.06;5561363;25;20008;-46
2024/04/10 07:14:24;;;;;;;14.57;3.38;;;;;;;9.70;100.00;69476.25;5528326;25;20014;-45
2024/04/10 07:16:53;;;;;;;10.57;2.85;;;;;;;9.80;100.00;69482.69;5561562;25;20518;-46
2024/04/10 07:19:24;;;;;;;13.20;3.30;;;;;;;9.80;100.00;69487.91;5560735;25;20371;-46
2024/04/10 07:21:52;;;;;;;15.90;4.07;;;;;;;9.86;100.00;69492.28;5560918;25;20455;-46
2024/04/10 07:24:23;;;;;;;14.68;2.97;;;;;;;9.93;100.00;69499.88;5557037;25;19996;-47
2024/04/10 07:26:51;;;;;;;15.27;3.50;;;;;;;9.96;100.00;69500.75;5557920;25;19997;-49
2024/04/10 07:29:24;;;;;;;11.75;3.03;;;;;;;10.00;100.00;69512.69;5561028;25;20064;-46
2024/04/10 07:31:52;;;;;;;11.88;3.13;;;;;;;10.09;100.00;69515.94;5558148;25;20012;-46
2024/04/10 07:34:24;;;;;;;10.70;3.13;;;;;;;10.23;100.00;69533.72;5556064;25;20005;-47
2024/04/10 07:36:52;;;;;;;7.38;2.75;;;;;;;10.26;100.00;69537.22;5561046;25;20351;-49
2024/04/10 07:39:23;;;;;;;14.68;3.67;;;;;;;10.29;100.00;69541.31;5560487;25;20003;-47
2024/04/10 07:41:51;;;;;;;9.70;2.90;;;;;;;10.35;100.00;69545.13;5528077;25;20383;-51
2024/04/10 07:44:25;;;;;;;11.00;2.75;;;;;;;10.46;100.00;69560.56;5560628;25;20008;-47
2024/04/10 07:46:53;;;;;;;10.68;2.50;;;;;;;10.62;100.00;69578.06;5560995;25;19993;-49
2024/04/10 07:49:24;;;;;;;12.73;3.35;;;;;;;10.76;100.00;69589.19;5560754;25;20068;-48
2024/04/10 07:51:52;;;;;;;13.18;3.30;;;;;;;10.93;100.00;69615.72;5560859;25;19989;-47
2024/04/10 07:54:23;;;;;;;12.98;3.20;;;;;;;11.12;100.00;69637.88;5560576;25;20450;-48
2024/04/10 07:56:52;;;;;;;14.00;2.67;;;;;;;11.31;100.00;69659.50;5560648;25;20007;-50
2024/04/10 07:59:25;;;;;;;14.25;2.80;;;;;;;11.52;100.00;69677.63;5527460;25;20458;-48
2024/04/10 08:01:55;;;;;;;13.90;3.20;;;;;;;11.68;100.00;69695.72;5560623;25;20412;-49
2024/04/10 08:04:26;;;;;;;16.05;3.28;;;;;;;11.83;100.00;69718.50;5483669;26;20017;-47
2024/04/10 08:06:55;;;;;;;16.67;3.35;;;;;;;11.96;100.00;69730.50;5480270;26;19990;-48
2024/04/10 08:09:26;;;;;;;13.40;2.83;;;;;;;12.11;100.00;69744.81;5483862;26;19994;-48
2024/04/10 08:11:54;;;;;;;14.93;3.05;;;;;;;12.32;100.00;69762.97;5486093;26;20434;-47
2024/04/10 08:14:28;;;;;;;12.45;2.85;;;;;;;12.42;100.00;69785.13;5486032;26;20079;-50
2024/04/10 08:16:56;;;;;;;12.93;2.97;;;;;;;12.64;100.00;69807.63;5485999;26;20318;-47
2024/04/10 08:19:27;;;;;;;15.10;3.70;;;;;;;12.84;100.00;69827.81;5485865;26;20013;-48
2024/04/10 08:21:58;;;;;;;13.63;3.05;;;;;;;12.98;100.00;69846.22;5486006;26;20005;-48
2024/04/10 08:24:29;;;;;;;20.40;4.38;;;;;;;13.00;100.00;69845.94;5485788;26;20087;-47
2024/04/10 08:27:02;;;;;;;14.27;3.43;;;;;;;13.11;100.00;69858.22;5485924;26;20095;-49
2024/04/10 08:29:36;;;;;;;12.93;2.70;;;;;;;13.33;100.00;69888.63;5485527;26;19998;-49
2024/04/10 08:32:06;;;;;;;13.70;3.22;;;;;;;13.58;100.00;69911.47;5485775;26;19994;-46
2024/04/10 08:34:38;;;;;;;13.65;2.85;;;;;;;13.61;100.00;69914.97;5485506;26;20002;-49
2024/04/10 08:37:06;;;;;;;13.20;3.13;;;;;;;13.74;100.00;69929.00;5485296;26;20032;-48
2024/04/10 08:39:37;;;;;;;15.25;3.25;;;;;;;13.93;100.00;69953.84;5481174;26;20632;-48
2024/04/10 08:42:13;;;;;;;13.57;2.78;;;;;;;14.00;100.00;69964.09;5483120;26;20047;-47
2024/04/10 08:44:46;;;;;;;;;;;;;;;14.09;100.00;69969.38;5486273;26;20002;-47
2024/04/10 08:47:16;;;;;;;14.05;2.85;;;;;;;14.35;100.00;69996.59;5482004;26;19924;-50
2024/04/10 08:49:47;;;;;;;13.45;2.83;;;;;;;14.47;100.00;70012.69;5480863;26;20002;-48
2024/04/10 08:52:16;;;;;;;13.65;2.97;;;;;;;14.53;100.00;70022.34;5483653;26;20553;-48
2024/04/10 08:54:47;;;;;;;12.93;3.17;;;;;;;14.67;100.00;70032.31;5485720;26;20014;-47
2024/04/10 08:57:16;;;;;;;12.50;2.72;;;;;;;14.86;100.00;70059.22;5485630;26;20006;-48
2024/04/10 08:59:50;;;;;;;11.50;2.92;;;;;;;14.82;100.00;70054.53;5485391;26;20498;-48
2024/04/10 09:02:18;;;;;;;10.70;2.65;;;;;;;14.72;100.00;70042.84;5497375;25;20021;-47
2024/04/10 09:04:50;;;;;;;11.07;2.50;;;;;;;14.69;100.00;70039.91;5559351;25;20796;-47
2024/04/10 09:07:18;;;;;;;16.95;2.67;;;;;;;14.72;100.00;70040.78;5559303;25;20001;-47
2024/04/10 09:09:52;;;;;;;8.57;2.03;;;;;;;14.69;100.00;70040.50;5559390;25;19997;-46
2024/04/10 09:12:23;;;;;;;20.63;3.35;;;;;;;14.69;100.00;70037.88;5559139;25;20313;-47
2024/04/10 09:15:09;;;;;;;10.48;2.70;;;;;;;14.64;100.00;70031.44;5558589;25;20040;-47
2024/04/10 09:17:37;;;;;;;15.18;2.90;;;;;;;14.62;100.00;70032.28;5559083;25;20572;-46
2024/04/10 09:20:16;;;;;;;12.88;2.83;;;;;;;14.77;100.00;70046.06;5558869;25;20013;-48
2024/04/10 09:22:45;;;;;;;11.13;2.83;;;;;;;14.56;100.00;70022.66;5562935;25;19992;-47
2024/04/10 09:25:16;;;;;;;9.55;2.75;;;;;;;14.67;100.00;70032.91;5530069;25;20001;-48
2024/04/10 09:27:44;;;;;;;11.60;2.85;;;;;;;14.59;100.00;70030.81;5530206;25;20435;-48
2024/04/10 09:30:18;;;;;;;12.27;3.08;;;;;;;14.86;100.00;70056.59;5562675;25;20715;-46
2024/04/10 09:32:47;;;;;;;11.07;2.60;;;;;;;15.06;100.00;70079.44;5562971;25;20007;-48
2024/04/10 09:35:19;;;;;;;13.93;2.85;;;;;;;15.44;100.00;70119.56;5562574;25;20005;-48
2024/04/10 09:37:50;;;;;;;11.27;2.80;;;;;;;15.74;100.00;70161.44;5562978;25;20033;-51
2024/04/10 09:40:26;;;;;;;8.43;2.50;;;;;;;16.01;100.00;70189.88;5560940;25;20000;-48
2024/04/10 09:43:01;;;;;;;10.00;2.10;;;;;;;16.22;100.00;70211.28;5558045;25;20025;-49
2024/04/10 09:45:37;;;;;;;8.77;2.10;;;;;;;16.49;99.43;70242.34;5561678;25;20072;-50
2024/04/10 09:48:06;;;;;;;12.77;2.90;;;;;;;16.68;93.02;70263.44;5562689;25;20001;-49
2024/04/10 09:50:39;;;;;;;10.80;2.33;;;;;;;16.78;92.44;70274.59;5561371;25;20411;-50
2024/04/10 09:53:08;;;;;;;9.80;2.55;;;;;;;16.94;86.25;70290.72;5529722;25;21263;-50
2024/04/10 09:55:40;;;;;;;8.88;2.80;;;;;;;16.56;81.92;70250.56;5562392;25;20000;-52
2024/04/10 09:58:10;;;;;;;8.33;2.20;;;;;;;16.64;91.64;70256.69;5562465;25;20390;-46
2024/04/10 10:00:44;;;;;;;10.95;2.65;;;;;;;17.06;84.53;70310.06;5562516;25;20020;-46
2024/04/10 10:03:22;;;;;;;10.93;2.47;;;;;;;17.32;90.62;70339.41;5562200;25;19992;-49
2024/04/10 10:06:03;;;;;;;13.35;2.47;;;;;;;17.73;83.98;70386.31;5562181;25;20012;-46
2024/04/10 10:08:33;;;;;;;8.45;2.10;;;;;;;17.72;78.64;70387.81;5562145;25;20000;-46
2024/04/10 10:11:07;;;;;;;9.38;2.00;;;;;;;18.01;84.00;70415.41;5562039;25;20044;-46
2024/04/10 10:13:41;;;;;;;10.48;1.98;;;;;;;17.43;72.75;70354.34;5527623;25;20468;-45
2024/04/10 10:16:14;;;;;;;8.32;2.00;;;;;;;17.46;72.59;70357.88;5556459;25;20700;-47
2024/04/10 10:18:54;;;;;;;7.25;1.73;;;;;;;17.46;60.96;70354.66;5560584;25;19989;-45
2024/04/10 10:21:26;;;;;;;8.75;1.80;;;;;;;17.42;62.80;70349.97;5562128;25;20008;-49
2024/04/10 10:23:58;;;;;;;7.57;1.92;;;;;;;17.55;62.38;70365.78;5562159;25;20004;-46
2024/04/10 10:26:29;;;;;;;8.15;1.95;;;;;;;17.39;59.89;70347.59;5561840;25;20370;-45
2024/04/10 10:29:01;;;;;;;10.25;1.88;;;;;;;17.83;68.37;70394.84;5561943;25;20068;-47
2024/04/10 10:31:39;;;;;;;10.80;2.17;;;;;;;18.05;64.96;70422.16;5561700;25;20068;-49
2024/04/10 10:34:12;;;;;;;9.85;2.03;;;;;;;18.21;60.84;70442.97;5528136;25;20363;-46
2024/04/10 10:36:43;;;;;;;8.55;2.00;;;;;;;18.35;58.08;70451.50;5561718;25;20024;-47
2024/04/10 10:39:15;;;;;;;7.03;1.60;;;;;;;18.55;61.01;70479.66;5561790;25;20384;-50
2024/04/10 10:41:45;;;;;;;9.43;1.85;;;;;;;18.59;62.44;70487.00;5561751;25;20028;-46
2024/04/10 10:44:21;;;;;;;8.45;1.70;;;;;;;18.94;60.86;70521.09;5561500;25;20008;-46
2024/04/10 10:46:57;;;;;;;9.68;1.70;;;;;;;19.18;56.25;70548.69;5562044;25;20012;-48
2024/04/10 10:49:26;;;;;;;10.48;1.60;;;;;;;19.21;50.07;70551.63;5561714;25;20003;-46
2024/04/10 10:51:57;;;;;;;6.50;1.58;;;;;;;19.34;50.57;70568.97;5561512;25;20472;-47
2024/04/10 10:54:25;;;;;;;5.43;1.33;;;;;;;19.52;50.82;70589.50;5561603;25;20063;-46
2024/04/10 10:56:56;;;;;;;6.90;1.50;;;;;;;19.75;48.82;70616.53;5561441;25;20038;-46
2024/04/10 10:59:25;;;;;;;8.00;1.50;;;;;;;19.99;48.86;70640.34;5561285;25;20000;-46
2024/04/10 11:01:59;;;;;;;9.13;2.00;;;;;;;19.98;45.13;70641.84;5561240;25;20464;-46
2024/04/10 11:04:28;;;;;;;9.70;1.90;;;;;;;19.79;48.03;70620.66;5561309;25;20004;-46
2024/04/10 11:07:09;;;;;;;10.52;1.88;;;;;;;19.52;47.44;70587.44;5561281;25;20001;-46
2024/04/10 11:09:37;;;;;;;8.60;1.50;;;;;;;19.61;49.55;70599.50;5560113;25;19996;-48
2024/04/10 11:12:09;;;;;;;7.25;1.67;;;;;;;19.20;47.79;70550.47;5556437;25;20474;-46
2024/04/10 11:14:38;;;;;;;7.72;1.40;;;;;;;19.43;46.95;70580.13;5556909;25;20177;-46
2024/04/10 11:17:15;;;;;;;7.57;1.70;;;;;;;19.56;43.57;70594.22;5556312;25;20037;-47
2024/04/10 11:19:43;;;;;;;8.30;1.52;;;;;;;19.53;45.49;70588.03;5561019;25;21101;-47
2024/04/10 11:22:22;;;;;;;6.88;1.40;;;;;;;19.83;46.14;70622.16;5526847;25;19997;-49
2024/04/10 11:24:51;;;;;;;6.95;1.50;;;;;;;19.84;45.11;70623.31;5556147;25;20008;-50
2024/04/10 11:27:22;;;;;;;7.82;1.58;;;;;;;20.16;44.61;70662.41;5559879;25;20011;-48
2024/04/10 11:29:51;;;;;;;7.07;1.40;;;;;;;20.38;45.94;70687.66;5561097;25;20007;-50
2024/04/10 11:32:25;;;;;;;5.40;1.23;;;;;;;20.52;43.87;70704.13;5561198;25;19996;-48
2024/04/10 11:34:54;;;;;;;7.10;1.50;;;;;;;20.65;42.80;70716.19;5561111;25;20015;-50
2024/04/10 11:37:25;;;;;;;7.65;1.33;;;;;;;20.65;42.14;70718.25;5560588;25;20000;-52
2024/04/10 11:39:53;;;;;;;9.23;1.38;;;;;;;19.90;41.60;70635.66;5561066;25;20015;-49
2024/04/10 11:42:24;;;;;;;6.57;1.38;;;;;;;20.18;45.23;70662.09;5527892;25;19997;-50
2024/04/10 11:44:52;;;;;;;5.22;1.13;;;;;;;20.26;41.72;70674.75;5559421;25;20024;-52